CLT TRACON Summary / KCLT TAF
CLT TRACON Summary:
Expect LIFR/IFR fog, spreading from the north and east towards CLT, then VFR after 14z. Surface winds will be frequently calm, to less than 5kts and from the north. No significant flight hazards are expected in the TRACON airspace.

Updated:10/01/2014 6:15 AM
CLT Terminal Aerodrome Forecast:

FTUS42 KGSP 011100
TAFCLT
TAF
KCLT 011120Z 0112/0212 00000KT P6SM FEW250
     FM011400 19004KT P6SM SCT045
     FM020300 20003KT P6SM FEW250=
CLT TRACON Area Remark:
LIFR/IFR EXPECTED N UNTIL 14Z.
Convective Gate Forecast / Collaborative Convective Forecast Product / Vertical Wind Profile
Convective Gate Forecast
SIGMETS/ Southeast Radar & Satellite Loops (click on image to enlarge)

Southeast Radar Loop

 



USA.gov is the U.S. government's official web portal to all federal, state and local government web resources and services.